Terminal Aerodrome Forecast
Issued by NWS St Louis, MO

Home | Current Version | Previous Version | Text Only | Print | Product List | Glossary On
Versions: 1 2 3 4 5 6 7 8 9 10 11 12 13 14 15 16 17 18 19 20 21 22 23
000
FTUS43 KLSX 181900 AAA
TAFCOU
TAF AMD
KCOU 181940Z 1820/1918 09005KT 5SM BR BKN008 OVC020
     FM190300 07004KT 3SM BR OVC007
     FM190800 07004KT 1SM BR OVC004
     FM191600 08005KT 3SM BR OVC008=

USA.gov is the U.S. government's official web portal to all federal, state and local government web resources and services.